createdAt,value
2018-11-22T00:10:00.640Z,97368.20
2018-11-22T00:20:19.551Z,97366.06
2018-11-22T00:30:38.247Z,97361.17
2018-11-22T00:40:57.141Z,97369.59
2018-11-22T00:51:15.865Z,97386.62
2018-11-22T01:01:34.633Z,97392.28
2018-11-22T01:11:53.292Z,97389.59
2018-11-22T01:22:11.962Z,97399.06
2018-11-22T01:32:30.786Z,97403.13
2018-11-22T01:42:49.508Z,97401.23
2018-11-22T01:53:08.198Z,97407.72
2018-11-22T02:03:27.138Z,97413.14
2018-11-22T02:13:45.872Z,97417.19
2018-11-22T02:24:05.584Z,97422.32
2018-11-22T02:34:24.391Z,97426.38
2018-11-22T02:44:44.039Z,97430.16
2018-11-22T02:55:03.519Z,97436.38
2018-11-22T03:05:22.157Z,97443.16
2018-11-22T03:15:40.997Z,97437.99
2018-11-22T03:25:59.765Z,97448.55
2018-11-22T03:36:18.532Z,97448.55
2018-11-22T03:46:37.927Z,97471.24
2018-11-22T03:56:56.744Z,97476.66
2018-11-22T04:07:15.666Z,97476.63
2018-11-22T04:17:34.272Z,97480.16
2018-11-22T04:27:53.070Z,97488.28
2018-11-22T04:38:12.071Z,97497.99
2018-11-22T04:48:30.608Z,97494.99
2018-11-22T04:58:49.703Z,97506.64
2018-11-22T05:09:09.604Z,97511.77
2018-11-22T05:19:28.324Z,97516.63
2018-11-22T05:29:47.142Z,97528.27
2018-11-22T05:40:08.682Z,97539.09
2018-11-22T05:50:29.551Z,97530.98
2018-11-22T06:00:48.261Z,97540.16
2018-11-22T06:11:07.047Z,97552.33
2018-11-22T06:21:28.425Z,97562.08
2018-11-22T06:31:46.800Z,97573.69
2018-11-22T06:42:05.388Z,97578.03
2018-11-22T06:52:24.775Z,97585.88
2018-11-22T07:02:43.730Z,97590.45
2018-11-22T07:13:02.605Z,97606.19
2018-11-22T07:23:21.258Z,97607.03
2018-11-22T07:33:40.120Z,97599.47
2018-11-22T07:43:58.687Z,97606.53
2018-11-22T07:54:17.456Z,97615.73
2018-11-22T08:04:36.092Z,97616.84
2018-11-22T08:14:54.958Z,97617.42
2018-11-22T08:25:15.168Z,97623.92
2018-11-22T08:35:33.935Z,97623.61
2018-11-22T08:45:52.618Z,97619.42
2018-11-22T08:56:11.355Z,97621.03
2018-11-22T09:06:30.267Z,97625.16
2018-11-22T09:16:50.690Z,97636.02
2018-11-22T09:27:15.401Z,97640.45
2018-11-22T09:37:37.927Z,97635.25
2018-11-22T09:47:58.673Z,97630.72
2018-11-22T09:58:18.706Z,97633.25
2018-11-22T10:08:44.088Z,97627.95
2018-11-22T10:19:04.202Z,97613.34
2018-11-22T10:29:24.551Z,97627.88
2018-11-22T10:39:43.919Z,97623.50
2018-11-22T10:50:04.838Z,97619.65
2018-11-22T11:00:43.278Z,97615.25
2018-11-22T11:11:03.845Z,97617.66
2018-11-22T11:21:23.533Z,97618.07
2018-11-22T11:31:43.450Z,97618.44
2018-11-22T11:42:02.787Z,97611.69
2018-11-22T11:52:23.204Z,97621.63
2018-11-22T12:02:44.153Z,97618.80
2018-11-22T12:13:05.009Z,97604.77
2018-11-22T12:23:25.948Z,97611.33
2018-11-22T12:34:05.442Z,97610.56
2018-11-22T12:44:26.215Z,97621.17
2018-11-22T12:54:46.453Z,97612.81
2018-11-22T13:05:07.751Z,97620.41
2018-11-22T13:15:28.042Z,97618.25
2018-11-22T13:25:48.093Z,97613.09
2018-11-22T13:36:08.478Z,97611.19
2018-11-22T13:46:28.013Z,97631.23
2018-11-22T13:56:48.006Z,97620.94
2018-11-22T14:07:07.598Z,97634.50
2018-11-22T14:17:27.075Z,97637.72
2018-11-22T14:27:47.822Z,97640.39
2018-11-22T14:38:06.879Z,97633.09
2018-11-22T14:48:26.071Z,97633.89
2018-11-22T14:58:45.859Z,97632.27
2018-11-22T15:09:07.386Z,97630.92
2018-11-22T15:19:27.141Z,97642.50
2018-11-22T15:29:46.628Z,97649.55
2018-11-22T15:40:08.354Z,97652.27
2018-11-22T15:50:28.395Z,97667.13
2018-11-22T16:00:48.457Z,97662.00
2018-11-22T16:11:10.899Z,97668.17
2018-11-22T16:21:28.294Z,97679.81
2018-11-22T16:31:48.762Z,97686.02
2018-11-22T16:42:09.216Z,97688.72
2018-11-22T16:52:30.791Z,97688.19
2018-11-22T17:02:52.889Z,97686.84
2018-11-22T17:13:15.427Z,97692.25
2018-11-22T17:23:37.823Z,97696.89
2018-11-22T17:33:59.561Z,97685.80
2018-11-22T17:44:21.709Z,97689.84
2018-11-22T17:54:43.850Z,97686.34
2018-11-22T18:05:05.696Z,97683.38
2018-11-22T18:15:29.980Z,97683.37
2018-11-22T18:25:53.590Z,97680.95
2018-11-22T18:36:17.141Z,97684.17
2018-11-22T18:46:39.827Z,97674.43
2018-11-22T18:57:03.196Z,97680.09
2018-11-22T19:07:23.494Z,97688.47
2018-11-22T19:17:42.481Z,97695.80
2018-11-22T19:28:02.206Z,97689.81
2018-11-22T19:38:21.102Z,97708.47
2018-11-22T19:48:39.596Z,97702.55
2018-11-22T19:58:58.514Z,97693.08
2018-11-22T20:09:25.033Z,97697.42
2018-11-22T20:19:43.983Z,97697.40
2018-11-22T20:30:03.452Z,97703.64
2018-11-22T20:40:23.815Z,97703.95
2018-11-22T20:50:42.487Z,97711.45
2018-11-22T21:01:01.232Z,97711.45
2018-11-22T21:11:19.966Z,97720.36
2018-11-22T21:21:38.513Z,97713.91
2018-11-22T21:31:57.499Z,97713.38
2018-11-22T21:42:36.568Z,97713.63
2018-11-22T22:04:12.409Z,97706.87
2018-11-22T22:25:26.596Z,97724.11
2018-11-22T23:08:54.409Z,97716.22
2018-11-22T23:19:03.006Z,97713.04
2018-11-22T23:29:21.615Z,97709.75
2018-11-22T23:39:40.260Z,97711.09
2018-11-22T23:49:59.047Z,97701.33
